Fulton, Maryland
Current Conditions -  °F | °C
As of 3:48 AM on Wednesday 26 Nov 2014 (Local Time) from KFME Reporting Station
Overcast Overcast  
Wind Chill: 43°   Ceiling: 6000
Heat Index: 43°   Visibility: 10mi
Dew Point: 37°   Wind: 0mph
Humidity: 81%   Direction: NA
Pressure: 30.1"   Gusts: NA
Location:  39.15°N, 76.92°W
Report Text: KFME 260848Z AUTO 00000KT 10SM BKN060 OVC070 06/03 A3010 RMK AO1
Loading
Personal Weather Stations






























Interactive Weather Map New forecast layout! Learn more

10-Day Weather Forecast

Advertisements
Track Severe Weather on mobile